Time;durP1;ratioP1;P1;durP2;ratioP2;P2;SDS_P1;SDS_P2;PMS_P1;PMS_P2;Temp;Humidity;BMP_temperature;BMP_pressure;BME280_temperature;BME280_humidity;BME280_pressure;Samples;Min_cycle;Max_cycle;Signal;HPM_P1;HPM_P2
2024/04/02 00:01:22;;;;;;;17.52;8.43;;;6.50;99.90;;;;;;5021450;28;20022;-94
2024/04/02 00:03:47;;;;;;;21.55;8.52;;;6.50;99.90;;;;;;5019134;28;20038;-93
2024/04/02 00:06:13;;;;;;;20.98;8.80;;;6.50;99.90;;;;;;5018856;28;20076;-92
2024/04/02 00:08:39;;;;;;;19.80;9.45;;;6.40;99.90;;;;;;5018518;28;20116;-93
2024/04/02 00:11:06;;;;;;;16.17;8.00;;;6.30;99.90;;;;;;5018197;28;20055;-91
2024/04/02 00:13:34;;;;;;;18.02;8.38;;;6.30;99.90;;;;;;5018358;28;20029;-93
2024/04/02 00:16:00;;;;;;;17.42;7.93;;;6.30;99.90;;;;;;5035700;28;20022;-92
2024/04/02 00:18:25;;;;;;;21.42;9.13;;;6.20;99.90;;;;;;5018511;28;20033;-93
2024/04/02 00:20:52;;;;;;;19.40;8.07;;;6.20;99.90;;;;;;5017807;28;20403;-92
2024/04/02 00:23:18;;;;;;;15.02;7.95;;;6.10;99.90;;;;;;5019010;28;20030;-93
2024/04/02 00:25:43;;;;;;;13.88;5.97;;;6.10;99.90;;;;;;5021767;28;20044;-93
2024/04/02 00:28:12;;;;;;;12.80;5.60;;;6.00;99.90;;;;;;5025076;28;20057;-91
2024/04/02 00:30:39;;;;;;;10.20;6.00;;;6.00;99.90;;;;;;5022211;28;20474;-94
2024/04/02 00:33:05;;;;;;;10.45;5.35;;;6.00;99.90;;;;;;5020843;28;20025;-93
2024/04/02 00:35:31;;;;;;;9.65;5.20;;;5.90;99.90;;;;;;5018805;28;20033;-93
2024/04/02 00:37:57;;;;;;;9.00;4.82;;;5.80;99.90;;;;;;5018783;28;20025;-92
2024/04/02 00:40:23;;;;;;;10.07;5.13;;;5.80;99.90;;;;;;5018162;28;20079;-94
2024/04/02 00:42:49;;;;;;;14.90;6.82;;;5.80;99.90;;;;;;5025290;28;20041;-92
2024/04/02 00:45:15;;;;;;;10.70;5.90;;;5.70;99.90;;;;;;5013739;28;20038;-93
2024/04/02 00:47:41;;;;;;;10.20;4.97;;;5.70;99.90;;;;;;5013981;28;20029;-92
2024/04/02 00:50:12;;;;;;;12.05;4.65;;;5.60;99.90;;;;;;5013583;28;20037;-92
2024/04/02 00:52:39;;;;;;;12.27;5.20;;;5.70;99.90;;;;;;5014486;28;20504;-93
2024/04/02 00:55:05;;;;;;;9.73;5.10;;;5.60;99.90;;;;;;5015477;28;20041;-92
2024/04/02 00:57:31;;;;;;;34.28;7.50;;;5.60;99.90;;;;;;5017454;28;20030;-93
2024/04/02 00:59:59;;;;;;;16.98;6.68;;;5.50;99.90;;;;;;5018143;28;20026;-93
2024/04/02 01:02:24;;;;;;;12.55;6.03;;;5.50;99.90;;;;;;5014854;28;20046;-93
2024/04/02 01:04:50;;;;;;;19.65;6.35;;;5.40;99.90;;;;;;5013965;28;20069;-92
2024/04/02 01:07:18;;;;;;;10.07;5.63;;;5.30;99.90;;;;;;5013891;28;20029;-93
2024/04/02 01:09:44;;;;;;;13.50;5.57;;;5.30;99.90;;;;;;5014097;28;20545;-92
2024/04/02 01:12:10;;;;;;;18.13;6.70;;;5.20;99.90;;;;;;5013805;28;20025;-92
2024/04/02 01:14:43;;;;;;;32.45;6.68;;;5.20;99.90;;;;;;5013172;28;20053;-93
2024/04/02 01:17:09;;;;;;;30.70;7.10;;;5.10;99.90;;;;;;5013417;28;20115;-92
2024/04/02 01:19:35;;;;;;;20.10;7.97;;;5.00;99.90;;;;;;5013886;28;20022;-91
2024/04/02 01:22:01;;;;;;;38.75;8.88;;;5.00;99.90;;;;;;5013558;28;20057;-91
2024/04/02 01:24:28;;;;;;;55.60;8.02;;;5.00;99.90;;;;;;5013686;28;20037;-91
2024/04/02 01:26:54;;;;;;;66.00;8.35;;;5.00;99.90;;;;;;5013250;28;20111;-92
2024/04/02 01:29:20;;;;;;;49.03;7.72;;;5.00;99.90;;;;;;5013758;28;20049;-91
2024/04/02 01:31:45;;;;;;;44.08;8.50;;;5.00;99.90;;;;;;5013741;28;20056;-93
2024/04/02 01:34:12;;;;;;;46.40;7.65;;;5.00;99.90;;;;;;5013828;28;20547;-91
2024/04/02 01:36:38;;;;;;;75.88;11.77;;;4.90;99.90;;;;;;5013732;28;20088;-92
2024/04/02 01:39:04;;;;;;;82.57;9.10;;;4.90;99.90;;;;;;5014274;28;20030;-91
2024/04/02 01:41:30;;;;;;;44.60;8.13;;;4.90;99.90;;;;;;5013463;28;20022;-91
2024/04/02 01:43:55;;;;;;;49.03;7.32;;;4.90;99.90;;;;;;5016643;28;20045;-93
2024/04/02 01:46:21;;;;;;;25.75;8.10;;;5.00;99.90;;;;;;5017743;28;20116;-93
2024/04/02 01:48:47;;;;;;;119.25;11.88;;;5.00;99.90;;;;;;5016987;28;20029;-91
2024/04/02 01:51:12;;;;;;;67.93;9.40;;;4.90;99.90;;;;;;5017197;28;20022;-93
2024/04/02 01:53:38;;;;;;;22.98;7.78;;;4.90;99.90;;;;;;5017291;28;20033;-92
2024/04/02 01:56:04;;;;;;;31.77;7.88;;;4.90;99.90;;;;;;5016412;28;20323;-91
2024/04/02 01:58:30;;;;;;;41.42;9.23;;;4.90;99.90;;;;;;5016264;28;20027;-92
2024/04/02 02:00:55;;;;;;;45.15;9.20;;;4.80;99.90;;;;;;5016506;28;20029;-92
2024/04/02 02:03:21;;;;;;;39.75;8.50;;;4.80;99.90;;;;;;5016798;28;20033;-92
2024/04/02 02:05:50;;;;;;;56.45;8.52;;;4.80;99.90;;;;;;5017009;28;20029;-91
2024/04/02 02:08:15;;;;;;;37.55;6.35;;;4.80;99.90;;;;;;5017239;28;20493;-91
2024/04/02 02:10:41;;;;;;;30.00;6.10;;;4.80;99.90;;;;;;5016455;28;20022;-93
2024/04/02 02:13:08;;;;;;;42.75;6.75;;;4.70;99.90;;;;;;5016350;28;20048;-92
2024/04/02 02:15:36;;;;;;;33.78;6.30;;;4.70;99.90;;;;;;5017201;28;20029;-91
2024/04/02 02:18:04;;;;;;;41.17;6.43;;;4.60;99.90;;;;;;5017431;28;20483;-92
2024/04/02 02:20:30;;;;;;;22.80;6.43;;;4.60;99.90;;;;;;5017677;28;20033;-91
2024/04/02 02:22:55;;;;;;;59.13;7.72;;;4.60;99.90;;;;;;5019224;28;20475;-92
2024/04/02 02:25:21;;;;;;;29.48;7.32;;;4.60;99.90;;;;;;5024477;28;20036;-92
2024/04/02 02:27:47;;;;;;;38.20;8.10;;;4.50;99.90;;;;;;5027429;28;20103;-91
2024/04/02 02:30:13;;;;;;;50.67;8.27;;;4.50;99.90;;;;;;5024868;28;20030;-91
2024/04/02 02:32:38;;;;;;;45.40;8.90;;;4.50;99.90;;;;;;5025201;28;20025;-92
2024/04/02 02:35:05;;;;;;;101.75;10.02;;;4.50;99.90;;;;;;5022568;28;20029;-92
2024/04/02 02:37:30;;;;;;;113.50;8.77;;;4.50;99.90;;;;;;5019169;28;20030;-92
2024/04/02 02:39:56;;;;;;;77.32;9.88;;;4.50;99.90;;;;;;5018872;28;20535;-92
2024/04/02 02:42:23;;;;;;;94.25;7.20;;;4.40;99.90;;;;;;5018354;28;20376;-92
2024/04/02 02:44:50;;;;;;;111.07;7.97;;;4.40;99.90;;;;;;5017790;28;20037;-92
2024/04/02 02:47:16;;;;;;;16.70;7.22;;;4.50;99.90;;;;;;5017254;28;20022;-92
2024/04/02 02:49:41;;;;;;;20.80;7.15;;;4.40;99.90;;;;;;5021007;28;20490;-93
2024/04/02 02:52:07;;;;;;;11.98;6.65;;;4.40;99.90;;;;;;5021499;28;20032;-92
2024/04/02 02:54:33;;;;;;;11.25;6.85;;;4.50;99.90;;;;;;5020737;28;20034;-92
2024/04/02 02:57:01;;;;;;;16.95;7.05;;;4.50;99.90;;;;;;5020888;28;20029;-92
2024/04/02 02:59:27;;;;;;;46.75;7.60;;;4.50;99.90;;;;;;5021268;28;20057;-92
2024/04/02 03:01:52;;;;;;;64.97;8.10;;;4.60;99.90;;;;;;5020421;28;20051;-92
2024/04/02 03:04:18;;;;;;;57.53;9.20;;;4.60;99.90;;;;;;5020732;28;20033;-92
2024/04/02 03:06:44;;;;;;;107.60;10.30;;;4.60;99.90;;;;;;5020278;28;20029;-92
2024/04/02 03:09:10;;;;;;;32.13;8.48;;;4.60;99.90;;;;;;5020302;28;20084;-94
2024/04/02 03:11:36;;;;;;;59.15;10.73;;;4.70;99.90;;;;;;5019948;28;20018;-94
2024/04/02 03:14:02;;;;;;;20.08;8.13;;;4.70;99.90;;;;;;5019849;28;20087;-93
2024/04/02 03:16:28;;;;;;;16.40;8.90;;;4.70;99.90;;;;;;5020038;28;20018;-93
2024/04/02 03:18:54;;;;;;;12.27;6.53;;;4.70;99.90;;;;;;5019387;28;20025;-92
2024/04/02 03:21:19;;;;;;;13.50;7.35;;;4.70;99.90;;;;;;5020042;28;20127;-94
2024/04/02 03:23:46;;;;;;;17.08;8.00;;;4.70;99.90;;;;;;5019850;28;20049;-93
2024/04/02 03:26:12;;;;;;;17.80;8.75;;;4.80;99.90;;;;;;5020131;28;20025;-94
2024/04/02 03:28:39;;;;;;;21.55;9.15;;;4.80;99.90;;;;;;5019736;28;20074;-93
2024/04/02 03:31:05;;;;;;;71.32;12.20;;;4.80;99.90;;;;;;5037003;28;20129;-92
2024/04/02 03:33:31;;;;;;;29.67;10.13;;;4.80;99.90;;;;;;5021071;28;20058;-91
2024/04/02 03:36:05;;;;;;;39.72;10.18;;;4.80;99.90;;;;;;5020433;28;20680;-92
2024/04/02 03:38:32;;;;;;;41.92;10.35;;;4.80;99.90;;;;;;5019531;28;20022;-92
2024/04/02 03:41:12;;;;;;;43.30;11.88;;;4.80;99.90;;;;;;5019158;28;20037;-91
2024/04/02 03:43:39;;;;;;;25.33;9.95;;;4.80;99.90;;;;;;5019099;28;20052;-92
2024/04/02 03:46:05;;;;;;;26.80;10.95;;;4.80;99.90;;;;;;5018845;28;20033;-92
2024/04/02 03:48:31;;;;;;;25.10;10.57;;;4.90;99.90;;;;;;5017767;28;20390;-92
2024/04/02 03:50:57;;;;;;;26.35;11.60;;;4.90;99.90;;;;;;5018345;28;20040;-92
2024/04/02 03:53:23;;;;;;;29.92;10.75;;;4.90;99.90;;;;;;5017343;28;20053;-92
2024/04/02 03:55:56;;;;;;;25.30;10.77;;;4.90;99.90;;;;;;5019128;28;20076;-91
2024/04/02 03:58:21;;;;;;;21.35;10.30;;;4.90;99.90;;;;;;5036197;28;20048;-93
2024/04/02 04:00:47;;;;;;;22.65;10.13;;;4.90;99.90;;;;;;5017844;28;20025;-92
2024/04/02 04:03:14;;;;;;;22.63;10.85;;;4.90;99.90;;;;;;5018642;28;20048;-93
2024/04/02 04:05:40;;;;;;;24.45;11.15;;;4.90;99.90;;;;;;5018322;28;20025;-94
2024/04/02 04:08:06;;;;;;;26.08;11.52;;;5.00;99.90;;;;;;5018307;28;20028;-92
2024/04/02 04:10:35;;;;;;;23.38;10.35;;;5.00;99.90;;;;;;5018105;28;20100;-93
2024/04/02 04:13:01;;;;;;;24.05;11.43;;;5.00;99.90;;;;;;5017974;28;20083;-92
2024/04/02 04:15:26;;;;;;;28.83;12.40;;;5.10;99.90;;;;;;5018218;28;20120;-92
2024/04/02 04:17:52;;;;;;;25.00;11.13;;;5.10;99.90;;;;;;5018819;28;20033;-92
2024/04/02 04:20:18;;;;;;;24.02;10.07;;;5.10;99.90;;;;;;5018425;28;20130;-93
2024/04/02 04:22:43;;;;;;;20.70;9.27;;;5.20;99.90;;;;;;5017549;28;20033;-92
2024/04/02 04:25:09;;;;;;;21.75;10.50;;;5.20;99.90;;;;;;5017811;28;20025;-91
2024/04/02 04:27:38;;;;;;;20.25;10.75;;;5.20;99.90;;;;;;5017931;28;20124;-92
2024/04/02 04:30:06;;;;;;;20.38;10.43;;;5.20;99.90;;;;;;5018401;28;20033;-92
2024/04/02 04:32:35;;;;;;;22.27;10.40;;;5.10;99.90;;;;;;5018474;28;20109;-92
2024/04/02 04:35:01;;;;;;;27.33;11.45;;;5.10;99.90;;;;;;5018653;28;20025;-92
2024/04/02 04:37:30;;;;;;;26.88;11.18;;;5.20;99.90;;;;;;5017573;28;20025;-92
2024/04/02 04:39:55;;;;;;;21.77;10.43;;;5.20;99.90;;;;;;5017405;28;20021;-92
2024/04/02 04:42:23;;;;;;;22.52;10.38;;;5.20;99.90;;;;;;5018081;28;20478;-94
2024/04/02 04:44:48;;;;;;;20.88;10.00;;;5.20;99.90;;;;;;5017921;28;20048;-92
2024/04/02 04:47:14;;;;;;;20.90;10.48;;;5.30;99.90;;;;;;5017547;28;20112;-93
2024/04/02 04:49:40;;;;;;;19.00;10.23;;;5.30;99.90;;;;;;5017643;28;20021;-92
2024/04/02 04:52:07;;;;;;;19.10;10.77;;;5.30;99.90;;;;;;5017015;28;20025;-92
2024/04/02 04:54:33;;;;;;;23.45;10.35;;;5.30;99.90;;;;;;5017242;28;20461;-93
2024/04/02 04:56:59;;;;;;;21.92;10.60;;;5.30;99.90;;;;;;5016978;28;20048;-92
2024/04/02 04:59:25;;;;;;;21.55;10.23;;;5.30;99.90;;;;;;5018096;28;20415;-93
2024/04/02 05:01:51;;;;;;;23.77;10.65;;;5.30;99.90;;;;;;5017529;28;20026;-93
2024/04/02 05:04:16;;;;;;;20.55;10.35;;;5.40;99.90;;;;;;5017704;28;20120;-93
2024/04/02 05:06:46;;;;;;;23.98;11.45;;;5.40;99.90;;;;;;5017328;28;20033;-93
2024/04/02 05:09:12;;;;;;;22.38;11.13;;;5.40;99.90;;;;;;5017260;28;20167;-92
2024/04/02 05:11:39;;;;;;;24.05;10.82;;;5.40;99.90;;;;;;5016550;28;20116;-93
2024/04/02 05:14:04;;;;;;;20.00;10.40;;;5.50;99.90;;;;;;5033903;28;20034;-93
2024/04/02 05:16:30;;;;;;;22.17;10.73;;;5.50;99.90;;;;;;5016821;28;20032;-91
2024/04/02 05:18:56;;;;;;;35.38;10.13;;;5.50;99.90;;;;;;5016148;28;20049;-91
2024/04/02 05:21:22;;;;;;;23.23;11.48;;;5.50;99.90;;;;;;5016669;28;20061;-91
2024/04/02 05:23:48;;;;;;;21.67;10.15;;;5.50;99.90;;;;;;5017300;28;20509;-91
2024/04/02 05:26:14;;;;;;;19.35;9.55;;;5.50;99.90;;;;;;5016865;28;20060;-92
2024/04/02 05:28:40;;;;;;;20.33;9.85;;;5.50;99.90;;;;;;5016770;28;20026;-91
2024/04/02 05:31:07;;;;;;;19.42;9.88;;;5.50;99.90;;;;;;5017076;28;20025;-92
2024/04/02 05:33:33;;;;;;;18.42;9.93;;;5.50;99.90;;;;;;5035305;28;20056;-92
2024/04/02 05:36:00;;;;;;;20.48;10.27;;;5.50;99.90;;;;;;5018817;28;20025;-92
2024/04/02 05:38:26;;;;;;;20.55;10.43;;;5.60;99.90;;;;;;5029119;28;20029;-92
2024/04/02 05:40:52;;;;;;;20.25;10.32;;;5.60;99.90;;;;;;5026771;28;20030;-92
2024/04/02 05:43:17;;;;;;;25.08;10.70;;;5.60;99.90;;;;;;5025629;28;20049;-92
2024/04/02 05:45:43;;;;;;;20.48;10.13;;;5.60;99.90;;;;;;5024614;28;20129;-92
2024/04/02 05:48:08;;;;;;;18.70;10.27;;;5.60;99.90;;;;;;5019751;28;20021;-92
2024/04/02 05:50:34;;;;;;;19.13;10.02;;;5.60;99.90;;;;;;5019528;28;20032;-92
2024/04/02 05:53:00;;;;;;;19.23;9.75;;;5.60;99.90;;;;;;5019159;28;20091;-92
2024/04/02 05:55:25;;;;;;;18.30;9.75;;;5.60;99.90;;;;;;5021203;28;20092;-92
2024/04/02 05:57:51;;;;;;;17.30;9.70;;;5.60;99.90;;;;;;5037905;28;20037;-92
2024/04/02 06:00:17;;;;;;;20.05;10.25;;;5.50;99.90;;;;;;5019712;28;20025;-91
2024/04/02 06:02:42;;;;;;;17.40;10.50;;;5.50;99.90;;;;;;5018096;28;20030;-92
2024/04/02 06:05:09;;;;;;;18.38;10.20;;;5.50;99.90;;;;;;5017512;28;20542;-92
2024/04/02 06:07:34;;;;;;;22.63;9.82;;;5.50;99.90;;;;;;5017665;28;20475;-92
2024/04/02 06:10:00;;;;;;;19.38;10.30;;;5.50;99.90;;;;;;5016897;28;20030;-91
2024/04/02 06:12:26;;;;;;;18.88;9.80;;;5.60;99.90;;;;;;5017168;28;20025;-92
2024/04/02 06:14:51;;;;;;;19.20;10.05;;;5.60;99.90;;;;;;5016632;28;20022;-91
2024/04/02 06:17:17;;;;;;;19.67;9.93;;;5.60;99.90;;;;;;5016223;28;20026;-91
2024/04/02 06:19:43;;;;;;;19.05;9.52;;;5.60;99.90;;;;;;5015495;28;20029;-93
2024/04/02 06:22:08;;;;;;;18.42;10.23;;;5.60;99.90;;;;;;5015897;28;20065;-92
2024/04/02 06:24:34;;;;;;;21.60;10.32;;;5.60;99.90;;;;;;5036990;28;20112;-91
2024/04/02 06:27:00;;;;;;;20.65;10.15;;;5.60;99.90;;;;;;5019838;28;20018;-93
2024/04/02 06:29:27;;;;;;;16.63;9.85;;;5.70;99.90;;;;;;5020356;28;20581;-92
2024/04/02 06:31:54;;;;;;;21.42;10.63;;;5.70;99.90;;;;;;5019969;28;20096;-93
2024/04/02 06:34:19;;;;;;;21.92;10.45;;;5.70;99.90;;;;;;5022558;28;20021;-92
2024/04/02 06:36:47;;;;;;;18.05;9.75;;;5.70;99.90;;;;;;5032356;28;20032;-91
2024/04/02 06:39:12;;;;;;;20.88;9.98;;;5.70;99.90;;;;;;5030885;28;20038;-93
2024/04/02 06:41:38;;;;;;;23.50;10.35;;;5.70;99.90;;;;;;5026898;28;20391;-92
2024/04/02 06:44:04;;;;;;;25.95;11.88;;;5.70;99.90;;;;;;5017735;28;20045;-92
2024/04/02 06:46:30;;;;;;;41.15;12.60;;;5.70;99.90;;;;;;5017227;28;20022;-91
2024/04/02 06:48:58;;;;;;;36.58;12.90;;;5.80;99.90;;;;;;5015988;28;20426;-92
2024/04/02 06:51:24;;;;;;;38.38;13.57;;;5.80;99.90;;;;;;5016235;28;20033;-92
2024/04/02 06:53:50;;;;;;;47.28;14.85;;;5.80;99.90;;;;;;5016079;28;20026;-92
2024/04/02 06:56:16;;;;;;;36.30;14.25;;;5.80;99.90;;;;;;5016213;28;20025;-92
2024/04/02 06:58:42;;;;;;;49.45;14.55;;;5.80;99.90;;;;;;5015869;28;20079;-92
2024/04/02 07:01:08;;;;;;;49.05;16.42;;;5.80;99.90;;;;;;5008339;28;20025;-91
2024/04/02 07:03:34;;;;;;;46.70;16.40;;;5.80;99.90;;;;;;5016877;28;20467;-92
2024/04/02 07:06:00;;;;;;;49.92;16.83;;;5.90;99.90;;;;;;5015328;28;20107;-91
2024/04/02 07:08:26;;;;;;;52.20;16.90;;;5.90;99.90;;;;;;5015016;28;20049;-91
2024/04/02 07:10:58;;;;;;;80.57;18.17;;;5.90;99.90;;;;;;5015190;28;20033;-90
2024/04/02 07:13:27;;;;;;;79.68;20.35;;;6.00;99.90;;;;;;5015599;28;20022;-92
2024/04/02 07:15:53;;;;;;;96.75;16.88;;;6.00;99.90;;;;;;5015375;28;20034;-92
2024/04/02 07:18:20;;;;;;;99.97;20.73;;;6.10;99.90;;;;;;5015433;28;20033;-92
2024/04/02 07:20:56;;;;;;;139.93;21.13;;;6.10;99.90;;;;;;5015284;28;20053;-92
2024/04/02 07:23:21;;;;;;;74.30;21.25;;;6.10;99.90;;;;;;5014670;28;20406;-92
2024/04/02 07:25:47;;;;;;;73.68;19.17;;;6.10;99.90;;;;;;5014765;28;20038;-92
2024/04/02 07:28:13;;;;;;;67.60;21.50;;;6.20;99.90;;;;;;5014707;28;20032;-93
2024/04/02 07:30:39;;;;;;;67.30;20.02;;;6.20;99.90;;;;;;5015506;28;20106;-93
2024/04/02 07:33:04;;;;;;;62.67;20.13;;;6.30;99.90;;;;;;5013742;28;20369;-92
2024/04/02 07:35:30;;;;;;;60.25;20.42;;;6.30;99.90;;;;;;5013919;28;20076;-93
2024/04/02 07:37:56;;;;;;;62.15;19.52;;;6.40;99.90;;;;;;5014372;28;20395;-92
2024/04/02 07:40:21;;;;;;;50.10;17.70;;;6.40;99.90;;;;;;5013310;28;20034;-92
2024/04/02 07:42:47;;;;;;;68.00;21.27;;;6.40;99.90;;;;;;5006197;28;20037;-90
2024/04/02 07:45:15;;;;;;;55.03;20.77;;;6.50;99.90;;;;;;5011484;28;20361;-93
2024/04/02 07:47:42;;;;;;;55.50;18.88;;;6.60;99.90;;;;;;5012714;28;20045;-91
2024/04/02 07:50:08;;;;;;;51.85;20.48;;;6.60;99.90;;;;;;5013971;28;20083;-91
2024/04/02 07:52:34;;;;;;;55.95;20.45;;;6.60;99.90;;;;;;5013679;28;20022;-91
2024/04/02 07:55:00;;;;;;;47.38;20.15;;;6.70;99.90;;;;;;5013170;28;20030;-91
2024/04/02 07:57:26;;;;;;;50.47;18.98;;;6.70;99.90;;;;;;5013252;28;20028;-91
2024/04/02 07:59:51;;;;;;;42.78;17.58;;;6.80;99.90;;;;;;5014132;28;20032;-92
2024/04/02 08:02:17;;;;;;;53.58;21.38;;;6.80;99.90;;;;;;5013830;28;20117;-91
2024/04/02 08:04:43;;;;;;;55.75;22.45;;;6.90;99.90;;;;;;5014372;28;20034;-90
2024/04/02 08:07:10;;;;;;;53.55;23.08;;;6.90;99.90;;;;;;5013449;28;20105;-92
2024/04/02 08:09:39;;;;;;;48.00;19.73;;;6.90;99.90;;;;;;5013650;28;20018;-92
2024/04/02 08:12:08;;;;;;;43.85;19.35;;;7.00;99.90;;;;;;5013085;28;20060;-92
2024/04/02 08:14:34;;;;;;;44.35;20.40;;;7.10;99.90;;;;;;5012025;28;20487;-92
2024/04/02 08:16:59;;;;;;;37.53;17.50;;;7.10;99.90;;;;;;5011129;28;20026;-92
2024/04/02 08:19:25;;;;;;;48.03;20.55;;;7.10;99.90;;;;;;5013094;28;20018;-92
2024/04/02 08:21:51;;;;;;;39.85;19.58;;;7.20;99.90;;;;;;5013236;28;20391;-92
2024/04/02 08:24:17;;;;;;;46.92;20.48;;;7.30;99.90;;;;;;5013265;28;20486;-93
2024/04/02 08:26:42;;;;;;;42.60;17.88;;;7.40;99.90;;;;;;5013226;28;20029;-92
2024/04/02 08:29:08;;;;;;;45.30;19.42;;;7.50;99.90;;;;;;5013629;28;20029;-92
2024/04/02 08:31:34;;;;;;;40.08;18.88;;;7.60;99.90;;;;;;5014841;28;20376;-93
2024/04/02 08:33:59;;;;;;;32.50;17.20;;;7.80;99.90;;;;;;5013039;28;20090;-93
2024/04/02 08:36:25;;;;;;;36.63;17.65;;;8.00;99.90;;;;;;5013456;28;20500;-92
2024/04/02 08:38:51;;;;;;;43.10;18.73;;;8.20;99.90;;;;;;5014674;28;20026;-93
2024/04/02 08:41:19;;;;;;;35.35;17.00;;;8.30;99.90;;;;;;5019076;28;20018;-94
2024/04/02 08:43:46;;;;;;;30.27;16.05;;;8.40;99.90;;;;;;5023529;28;20045;-93
2024/04/02 08:46:13;;;;;;;29.30;13.48;;;8.50;99.90;;;;;;5004641;28;20030;-94
2024/04/02 08:48:39;;;;;;;28.25;11.40;;;8.50;99.90;;;;;;5022659;28;20041;-95
2024/04/02 08:51:05;;;;;;;22.83;11.60;;;8.50;99.90;;;;;;5003726;28;20063;-93
2024/04/02 08:53:34;;;;;;;23.88;11.05;;;8.60;99.90;;;;;;4999407;28;20259;-91
2024/04/02 08:55:59;;;;;;;24.13;10.95;;;8.60;99.90;;;;;;4997300;28;20018;-91
2024/04/02 08:58:27;;;;;;;21.25;9.73;;;8.70;99.90;;;;;;4998169;28;20052;-93
2024/04/02 09:00:53;;;;;;;20.45;9.73;;;8.80;99.90;;;;;;4999512;28;20192;-92
2024/04/02 09:03:20;;;;;;;17.15;9.05;;;8.90;99.90;;;;;;4996531;28;20099;-92
2024/04/02 09:05:46;;;;;;;15.15;8.63;;;8.90;99.90;;;;;;4996949;28;20417;-91
2024/04/02 09:08:14;;;;;;;16.15;8.35;;;9.00;99.90;;;;;;4996918;28;20033;-92
2024/04/02 09:10:42;;;;;;;13.32;7.72;;;9.10;99.90;;;;;;4994214;28;20022;-92
2024/04/02 09:13:10;;;;;;;13.02;7.47;;;9.30;99.90;;;;;;4994796;28;20395;-93
2024/04/02 09:15:36;;;;;;;14.35;6.45;;;9.50;99.90;;;;;;4997855;28;20048;-92
2024/04/02 09:18:02;;;;;;;13.98;7.95;;;9.60;99.90;;;;;;5013582;28;20495;-93
2024/04/02 09:20:28;;;;;;;12.45;7.35;;;9.60;99.90;;;;;;4997310;28;20116;-91
2024/04/02 09:22:54;;;;;;;11.10;6.38;;;9.80;99.90;;;;;;4996027;28;20605;-91
2024/04/02 09:25:21;;;;;;;13.93;8.15;;;9.90;99.90;;;;;;4996188;28;20080;-93
2024/04/02 09:27:48;;;;;;;12.15;6.57;;;10.00;99.90;;;;;;4996760;28;20112;-93
2024/04/02 09:30:14;;;;;;;12.27;7.38;;;10.20;99.90;;;;;;4996512;28;20028;-93
2024/04/02 09:32:42;;;;;;;11.88;6.15;;;10.40;99.90;;;;;;4996118;28;20022;-92
2024/04/02 09:35:19;;;;;;;10.57;6.13;;;10.50;99.90;;;;;;4997044;28;20022;-91
2024/04/02 09:37:50;;;;;;;10.68;6.15;;;10.70;99.90;;;;;;4999036;28;20057;-90
2024/04/02 09:40:16;;;;;;;11.05;6.68;;;10.80;99.90;;;;;;4999397;28;20057;-92
2024/04/02 09:42:47;;;;;;;10.95;6.63;;;10.80;99.90;;;;;;5000592;28;20054;-91
2024/04/02 09:45:14;;;;;;;12.32;6.53;;;10.80;99.90;;;;;;4988960;28;20034;-92
2024/04/02 09:47:45;;;;;;;11.32;5.93;;;10.80;99.90;;;;;;5029380;28;20030;-91
2024/04/02 09:50:11;;;;;;;9.45;5.50;;;10.80;99.90;;;;;;5005098;28;20034;-91
2024/04/02 09:52:37;;;;;;;9.52;5.82;;;10.70;99.90;;;;;;5004233;28;20025;-91
2024/04/02 09:55:04;;;;;;;10.20;5.70;;;10.80;99.90;;;;;;5029194;28;20414;-91
2024/04/02 09:57:31;;;;;;;11.20;5.88;;;10.80;99.90;;;;;;5003630;28;20038;-92
2024/04/02 09:59:57;;;;;;;13.77;5.45;;;10.90;99.90;;;;;;5001298;28;20112;-89
2024/04/02 10:02:27;;;;;;;6.82;4.22;;;11.00;99.90;;;;;;5013679;28;20052;-90
2024/04/02 10:04:55;;;;;;;10.50;4.90;;;11.20;99.90;;;;;;5028679;28;20530;-91
2024/04/02 10:07:32;;;;;;;7.75;4.43;;;11.20;99.90;;;;;;5002571;28;20025;-91
2024/04/02 10:10:01;;;;;;;10.27;5.30;;;11.20;99.90;;;;;;5031053;28;20083;-91
2024/04/02 10:12:30;;;;;;;7.55;4.50;;;11.30;99.90;;;;;;5004990;28;20065;-90
2024/04/02 10:14:56;;;;;;;9.88;4.88;;;11.30;99.90;;;;;;5003662;28;20112;-92
2024/04/02 10:17:22;;;;;;;6.80;4.10;;;11.50;99.90;;;;;;5004202;28;20033;-92
2024/04/02 10:19:50;;;;;;;7.05;4.07;;;11.70;99.90;;;;;;5002023;28;20018;-92
2024/04/02 10:22:36;;;;;;;6.43;4.13;;;12.00;99.90;;;;;;5001227;28;20038;-93
2024/04/02 10:25:12;;;;;;;5.25;3.63;;;12.30;99.90;;;;;;5005669;28;20033;-92
2024/04/02 10:27:47;;;;;;;7.25;4.05;;;12.60;99.90;;;;;;5001189;28;20679;-92
2024/04/02 10:30:21;;;;;;;5.28;3.35;;;12.80;99.90;;;;;;5029013;28;20083;-91
2024/04/02 10:32:53;;;;;;;6.78;4.10;;;13.10;99.90;;;;;;5028674;28;20022;-92
2024/04/02 10:35:27;;;;;;;5.70;3.88;;;13.40;99.90;;;;;;4999717;28;20022;-93
2024/04/02 10:37:57;;;;;;;4.60;3.17;;;13.70;99.90;;;;;;5008942;28;20172;-92
2024/04/02 10:40:24;;;;;;;5.07;3.20;;;13.80;99.90;;;;;;5039576;28;20022;-92
2024/04/02 10:42:52;;;;;;;6.50;3.75;;;14.10;99.90;;;;;;5009393;28;20042;-91
2024/04/02 10:45:19;;;;;;;10.30;4.00;;;14.30;99.90;;;;;;5009769;28;20034;-91
2024/04/02 10:47:52;;;;;;;4.28;3.00;;;14.40;99.90;;;;;;5030283;28;20109;-92
2024/04/02 10:50:23;;;;;;;4.45;3.17;;;14.50;99.90;;;;;;5028692;28;20367;-93
2024/04/02 10:52:49;;;;;;;4.43;2.70;;;14.60;99.90;;;;;;4988233;28;20233;-93
2024/04/02 10:55:21;;;;;;;5.55;3.22;;;14.70;99.90;;;;;;5028202;28;20024;-92
2024/04/02 10:57:47;;;;;;;4.40;3.03;;;14.80;99.90;;;;;;5003483;28;20022;-93
2024/04/02 11:00:15;;;;;;;8.00;3.47;;;15.00;99.90;;;;;;5002190;28;20037;-93
2024/04/02 11:02:43;;;;;;;5.82;3.10;;;15.20;99.90;;;;;;5005426;28;20062;-93
2024/04/02 11:05:16;;;;;;;4.28;2.90;;;15.30;99.90;;;;;;5027764;28;20030;-93
2024/04/02 11:07:44;;;;;;;4.53;2.90;;;15.50;99.90;;;;;;5000532;28;20088;-93
2024/04/02 11:10:11;;;;;;;4.32;2.63;;;15.80;99.90;;;;;;5031143;28;20475;-91
2024/04/02 11:12:36;;;;;;;4.80;2.83;;;16.00;98.50;;;;;;5007611;28;20061;-91
2024/04/02 11:15:02;;;;;;;4.93;3.22;;;16.00;97.00;;;;;;5031787;28;20712;-92
2024/04/02 11:17:28;;;;;;;5.18;3.10;;;16.10;96.10;;;;;;5031386;28;20030;-91
2024/04/02 11:19:56;;;;;;;5.43;2.83;;;16.30;96.00;;;;;;5031443;28;20030;-93
2024/04/02 11:25:17;;;;;;;3.42;2.22;;;16.50;92.30;;;;;;4995716;28;20040;-93
2024/04/02 11:27:43;;;;;;;3.30;2.25;;;16.30;91.00;;;;;;5007968;28;20106;-92
2024/04/02 11:30:14;;;;;;;3.83;2.28;;;16.20;90.90;;;;;;5032024;28;20471;-92
2024/04/02 11:32:40;;;;;;;4.93;2.67;;;16.30;91.00;;;;;;5002489;28;20034;-93
2024/04/02 11:35:13;;;;;;;5.05;3.40;;;16.50;90.60;;;;;;5029171;28;20041;-94
2024/04/02 11:37:39;;;;;;;3.10;2.40;;;16.60;89.60;;;;;;4998620;28;20080;-94
2024/04/02 11:40:08;;;;;;;3.53;2.42;;;16.80;89.60;;;;;;5002295;28;20026;-93
2024/04/02 11:42:34;;;;;;;3.85;2.40;;;16.70;88.40;;;;;;5030031;28;20042;-93
2024/04/02 11:45:00;;;;;;;3.13;2.47;;;16.60;88.10;;;;;;5004892;28;20351;-94
2024/04/02 11:47:27;;;;;;;4.38;2.78;;;16.40;87.30;;;;;;5002846;28;20026;-94
2024/04/02 11:49:53;;;;;;;3.30;2.15;;;16.10;86.80;;;;;;5031961;28;20029;-95
2024/04/02 11:52:18;;;;;;;3.53;2.80;;;16.00;85.90;;;;;;4999562;28;20430;-95
2024/04/02 11:54:44;;;;;;;6.85;3.40;;;15.90;86.60;;;;;;5005627;28;20382;-95
2024/04/02 12:02:47;;;;;;;4.15;3.38;;;16.20;83.90;;;;;;5024561;28;20099;-94
2024/04/02 12:05:15;;;;;;;4.55;3.67;;;16.10;84.90;;;;;;5037310;28;20050;-92
2024/04/02 12:07:42;;;;;;;3.92;3.40;;;16.00;84.50;;;;;;5007197;28;20018;-93
2024/04/02 12:10:09;;;;;;;5.70;4.05;;;15.90;85.00;;;;;;5010912;28;20113;-94
2024/04/02 12:12:38;;;;;;;4.85;3.22;;;15.80;85.60;;;;;;5011888;28;20115;-92
2024/04/02 12:15:10;;;;;;;4.05;2.53;;;15.80;85.00;;;;;;5018231;28;20036;-92
2024/04/02 12:17:36;;;;;;;6.78;2.95;;;15.50;84.00;;;;;;5009812;28;20033;-93
2024/04/02 12:20:03;;;;;;;7.22;2.45;;;15.30;84.00;;;;;;5010858;28;20022;-92
2024/04/02 12:22:29;;;;;;;8.70;2.75;;;15.10;83.80;;;;;;5009616;28;20030;-93
2024/04/02 12:24:56;;;;;;;2.60;2.40;;;15.10;84.70;;;;;;5034419;28;20044;-92
2024/04/02 12:27:25;;;;;;;4.22;2.40;;;15.10;84.90;;;;;;5012381;28;20030;-91
2024/04/02 12:29:58;;;;;;;2.47;1.95;;;15.40;85.40;;;;;;5034292;28;20042;-91
2024/04/02 12:32:29;;;;;;;1.92;1.83;;;15.90;85.20;;;;;;5010032;28;20014;-94
2024/04/02 12:34:55;;;;;;;4.53;2.05;;;16.60;84.10;;;;;;5032823;28;20026;-91
2024/04/02 12:37:27;;;;;;;2.97;2.38;;;17.00;81.70;;;;;;5020408;28;20033;-92
2024/04/02 12:39:53;;;;;;;2.50;2.13;;;17.40;80.70;;;;;;5014182;28;20057;-92
2024/04/02 12:42:21;;;;;;;2.60;2.25;;;17.60;79.80;;;;;;5036610;28;20068;-92
2024/04/02 12:44:53;;;;;;;4.28;2.00;;;17.60;78.20;;;;;;5043577;28;20033;-91
2024/04/02 12:47:21;;;;;;;3.22;2.70;;;17.30;78.20;;;;;;5010470;28;20022;-92
2024/04/02 12:49:47;;;;;;;4.43;2.65;;;17.10;78.60;;;;;;5033788;28;20031;-93